ADDS METAR Data INFO
IDs: Format: Raw Decoded Include TAF

Data at: 1143 UTC 25 Jun 2018

KDUX 251135Z AUTO 34003KT 10SM SCT100 SCT120 13/11 A3009 RMK AO2 T01300110
KDUX 251115Z AUTO 33008KT 10SM SCT100 SCT120 14/11 A3009 RMK AO2 T01350114
KDUX 251055Z AUTO 34007KT 10SM BKN100 14/12 A3008 RMK AO2 T01360116
KDUX 251035Z AUTO 32007KT 10SM BKN100 14/12 A3007 RMK AO2 T01350118
KDUX 251015Z AUTO 32010KT 10SM CLR 13/13 A3006 RMK AO2 T01300125
KDUX 250955Z AUTO 31008KT 10SM SCT110 13/13 A3006 RMK AO2 P0001 T01300125
KDUX 250935Z AUTO 26004KT 10SM SCT100 13/13 A3005 RMK AO2 T01300125
KDUX 250915Z AUTO 31005KT 10SM CLR 13/13 A3004 RMK AO2 T01300125
KDUX 250855Z AUTO 33015KT 10SM CLR 13/13 A3001 RMK AO2 60002 T01310127
KDUX 250835Z AUTO 32010KT 7SM CLR 13/13 A3002 RMK AO2 T01330130
KDUX 250815Z AUTO 33009KT 7SM CLR 13/13 A3002 RMK AO2 T01340130
KDUX 250755Z AUTO 35010KT 10SM SCT006 SCT120 14/13 A3003 RMK AO2 T01350131
KDUX 250735Z AUTO 01004KT 10SM SCT006 14/13 A3007 RMK AO2 T01350130
KDUX 250715Z AUTO 00000KT 10SM -RA SCT008 SCT012 13/13 A3006 RMK AO2 T01330129
KDUX 250655Z AUTO 09004KT 10SM -RA BKN008 BKN013 BKN020 13/13 A3011 RMK AO2 P0002 T01340129
KDUX 250635Z AUTO 10010KT 10SM -RA BKN006 BKN013 BKN019 13/13 A3005 RMK AO2 P0001 T01340130
KDUX 250615Z AUTO 06012KT 10SM -RA SCT010 SCT013 SCT018 13/13 A3007 RMK AO2 P0001 T01310127
KDUX 250555Z AUTO 06011KT 10SM -RA SCT006 BKN011 BKN017 13/13 A3007 RMK AO2 P0010 60068 T01310127 10274 20130 402740130
KDUX 250535Z AUTO 02017G23KT 5SM RA BKN008 BKN012 BKN022 13/13 A3001 RMK AO2 P0009 T01310127
KDUX 250515Z AUTO 04011G22KT 10SM RA BKN006 BKN009 13/13 A3002 RMK AO2 P0001 T01310127
KDUX 250455Z AUTO 01015G24KT 1 1/4SM UP OVC006 13/13 A3006 RMK AO2 P0056 T01310125
KDUX 250435Z AUTO 36017G28KT 4SM +RA BKN013 OVC032 14/13 A3009 RMK AO2 P0011 T01430126
KDUX 250415Z AUTO 01021G32KT 10SM -RA SCT018 SCT023 BKN028 15/12 A3000 RMK AO2 T01500123
KDUX 250355Z AUTO 36030G44KT 7SM SCT020 BKN033 16/12 A2998 RMK AO2 T01640120
KDUX 250335Z AUTO 01008KT 10SM SCT035 22/19 A2991 RMK AO2 T02180191
KDUX 250315Z AUTO 00000KT 10SM BKN032 OVC040 23/19 A2990 RMK AO2 T02320191
KDUX 250255Z AUTO 36007KT 10SM BKN031 OVC038 24/19 A2991 RMK AO2 T02360191
KDUX 250235Z AUTO 03005KT 10SM OVC031 24/19 A2991 RMK AO2 T02380189
KDUX 250215Z AUTO 01008KT 10SM BKN031 24/19 A2991 RMK AO2 T02410186
KDUX 250155Z AUTO 08009G15KT 10SM CLR 24/18 A2987 RMK AO2 T02430182
KDUX 250135Z AUTO 10008KT 10SM CLR 25/18 A2986 RMK AO2 T02460182
KDUX 250115Z AUTO 10010KT 10SM CLR 25/18 A2986 RMK AO2 T02520182
KDUX 250055Z AUTO 10011KT 10SM CLR 26/18 A2986 RMK AO2 T02600180
KDUX 250035Z AUTO 10013G19KT 10SM CLR 27/18 A2986 RMK AO2 T02700182
KDUX 250015Z AUTO 10014G20KT 10SM CLR 27/18 A2985 RMK AO2 T02710181
KDUX 242355Z AUTO 08011G19KT 10SM CLR 27/18 A2985 RMK AO2 T02710179 10272 20196
KDUX 242335Z AUTO 09013G20KT 10SM SCT034 27/18 A2985 RMK AO2 T02710180
KDUX 242315Z AUTO 10011KT 10SM SCT034 27/18 A2986 RMK AO2 T02660181
KDUX 242255Z AUTO 10014G17KT 10SM CLR 27/18 A2986 RMK AO2 T02710180
KDUX 242235Z AUTO 10014KT 10SM CLR 27/18 A2987 RMK AO2 T02680176
KDUX 242215Z AUTO 10011G16KT 10SM CLR 27/18 A2987 RMK AO2 T02670175
KDUX 242155Z AUTO 11012KT 10SM SCT041 26/17 A2988 RMK AO2 T02620174
KDUX 242135Z AUTO 08011G18KT 10SM SCT041 26/17 A2989 RMK AO2 T02600170
KDUX 242115Z AUTO 08012G17KT 10SM SCT039 26/17 A2990 RMK AO2 T02610169
KDUX 242055Z AUTO 09010G17KT 10SM SCT028 SCT039 25/17 A2991 RMK AO2 6//// T02510165 PNO
KDUX 242035Z AUTO 07014G19KT 10SM BKN028 25/17 A2991 RMK AO2 T02540166
KDUX 242015Z AUTO 08011G18KT 10SM OVC026 24/16 A2992 RMK AO2 T02430161
KDUX 241955Z AUTO 08011G19KT 10SM BKN026 25/16 A2993 RMK AO2 T02450161
KDUX 241935Z AUTO 09014G21KT 10SM BKN024 24/16 A2993 RMK AO2 T02360158
KDUX 241915Z AUTO 08016G21KT 10SM BKN024 23/16 A2993 RMK AO2 T02320157
KDUX 241855Z AUTO 09017G20KT 10SM BKN024 22/16 A2995 RMK AO2 T02220155
KDUX 241835Z AUTO 08017G22KT 10SM BKN021 22/16 A2995 RMK AO2 T02230155
KDUX 241815Z AUTO 08014G22KT 10SM OVC019 21/15 A2995 RMK AO2 T02050150
KDUX 241755Z AUTO 08016G22KT 10SM OVC015 20/15 A2996 RMK AO2 T01950150 10202 20165
KDUX 241735Z AUTO 08016G22KT 10SM OVC013 19/15 A2995 RMK AO2 T01900148
KDUX 241715Z AUTO 07018G22KT 10SM OVC011 18/15 A2995 RMK AO2 T01840147
KDUX 241655Z AUTO 06018G26KT 10SM OVC011 18/15 A2995 RMK AO2 T01790145
KDUX 241635Z AUTO 06022G27KT 10SM OVC011 18/15 A2993 RMK AO2 T01800145
KDUX 241615Z AUTO 05019G25KT 10SM OVC011 19/15 A2993 RMK AO2 T01890151
KDUX 241555Z AUTO 05022G28KT 10SM OVC011 19/15 A2993 RMK AO2 T01850151
KDUX 241535Z AUTO 04019G25KT 10SM OVC011 18/15 A2992 RMK AO2 T01770147
KDUX 241515Z AUTO 04019G26KT 10SM BKN006 OVC011 17/15 A2993 RMK AO2 T01690150
KDUX 241455Z AUTO 02017G26KT 3SM BR BKN006 OVC009 17/16 A2993 RMK AO2 T01650155
KDUX 241435Z AUTO 01018G24KT 1 1/2SM BR OVC004 19/18 A2991 RMK AO2 T01850176
KDUX 241415Z AUTO 35019G24KT 4SM BR BKN004 20/18 A2991 RMK AO2 T01970184
KDUX 241355Z AUTO 33007KT 3SM BR OVC002 19/19 A2987 RMK AO2 T01930189
KDUX 241335Z AUTO 13008KT 1/2SM FG OVC002 19/19 A2982 RMK AO2 T01900186
KDUX 241315Z AUTO 13009KT M1/4SM FG OVC002 19/18 A2981 RMK AO2 T01860182
KDUX 241255Z AUTO 12010KT M1/4SM FG OVC002 19/18 A2980 RMK AO2 T01850181
KDUX 241235Z AUTO 12007KT M1/4SM FG OVC002 19/18 A2981 RMK AO2 T01850180
KDUX 241215Z AUTO 11006KT M1/4SM FG OVC002 18/18 A2982 RMK AO2 T01830180
KDUX 241155Z AUTO 10008KT M1/4SM FG OVC002 18/18 A2982 RMK AO2 T01830178 10215 20182
KDUX 241135Z AUTO 09008KT 1/2SM FG OVC002 18/18 A2982 RMK AO2 T01830178
KDUX 241115Z AUTO 10007KT 1 1/4SM BR OVC002 18/18 A2982 RMK AO2 T01830177
KDUX 241055Z AUTO 09009KT 3SM BR OVC002 19/18 A2982 RMK AO2 T01880180
KDUX 241035Z AUTO 09012G19KT 5SM BR OVC004 20/19 A2982 RMK AO2 T01950187
KDUX 241015Z AUTO 09010KT 4SM BR OVC004 20/19 A2983 RMK AO2 T02000191
KDUX 240955Z AUTO 09011KT 4SM BR OVC004 20/19 A2982 RMK AO2 T02000191
KDUX 240935Z AUTO 08010KT 5SM BR BKN004 BKN120 20/19 A2983 RMK AO2 T02000190
KDUX 240915Z AUTO 08012KT 5SM BR SCT004 SCT120 20/19 A2982 RMK AO2 T02000190
KDUX 240855Z AUTO 06009KT 7SM CLR 20/19 A2983 RMK AO2 T02000190
KDUX 240835Z AUTO 06008KT 7SM CLR 21/19 A2982 RMK AO2 T02050191
KDUX 240815Z AUTO 09006KT 7SM CLR 21/19 A2981 RMK AO2 T02050190
KDUX 240755Z AUTO 08007KT 7SM CLR 21/19 A2982 RMK AO2 T02070191
KDUX 240735Z AUTO 09008KT 10SM CLR 21/19 A2984 RMK AO2 T02070190
KDUX 240715Z AUTO 06010G16KT 10SM CLR 21/19 A2985 RMK AO2 T02070190
KDUX 240655Z AUTO 07010KT 10SM SCT036 21/19 A2985 RMK AO2 T02080189
KDUX 240635Z AUTO 04012G17KT 10SM SCT034 21/19 A2987 RMK AO2 T02100190
KDUX 240615Z AUTO 09009KT 10SM CLR 21/19 A2984 RMK AO2 T02110186
KDUX 240555Z AUTO 10012KT 10SM CLR 22/19 A2984 RMK AO2 T02150185 10296 20211 402990152
KDUX 240535Z AUTO 10010KT 10SM CLR 21/18 A2984 RMK AO2 T02140182
KDUX 240515Z AUTO 10009KT 10SM CLR 21/18 A2983 RMK AO2 T02120180
KDUX 240455Z AUTO 11009KT 10SM CLR 22/18 A2982 RMK AO2 T02160180
KDUX 240435Z AUTO 11010KT 10SM CLR 22/18 A2982 RMK AO2 T02220180 PNO
KDUX 240415Z AUTO 10009KT 10SM CLR 22/18 A2982 RMK AO2 T02240178
KDUX 240355Z AUTO 11009KT 10SM CLR 23/18 A2982 RMK AO2 T02270177
KDUX 240335Z AUTO 11009KT 10SM CLR 23/18 A2982 RMK AO2 T02340176
KDUX 240315Z AUTO 10009KT 10SM CLR 24/18 A2982 RMK AO2 T02370176
KDUX 240255Z AUTO 11009KT 10SM CLR 24/18 A2981 RMK AO2 T02430175
KDUX 240235Z AUTO 10010KT 10SM CLR 25/17 A2980 RMK AO2 T02470174
KDUX 240215Z AUTO 11011KT 10SM CLR 25/17 A2978 RMK AO2 T02510171
KDUX 240155Z AUTO 11010KT 10SM CLR 26/17 A2978 RMK AO2 T02600170
KDUX 240135Z AUTO 12011KT 10SM CLR 27/16 A2979 RMK AO2 T02680162
KDUX 240115Z AUTO 13012G17KT 10SM CLR 28/16 A2979 RMK AO2 T02790161
KDUX 240055Z AUTO 13012KT 10SM CLR 29/16 A2980 RMK AO2 T02850158
KDUX 240035Z AUTO 14013G18KT 10SM CLR 29/16 A2980 RMK AO2 T02860164
KDUX 240015Z AUTO 14010KT 10SM CLR 29/16 A2981 RMK AO2 T02920163
KDUX 232355Z AUTO 12010G15KT 10SM CLR 29/17 A2981 RMK AO2 T02910166 10299 20249